Tollgate, Oregon
Current Conditions -  °F | °C
As of 5:36 PM on Friday 24 Oct 2014 (Local Time) from KRDM Reporting Station
Haze Haze  
Wind Chill: 42°   Ceiling: 200
Heat Index: 47°   Visibility: 0.75mi
Dew Point: 45°   Wind: 10mph
Humidity: 93%   Direction: 320°NW
Pressure: 29.88"   Gusts: NA
Location:  44.3095°N, 121.588°W
Report Text: KRDM 250036Z 32009KT 3/4SM BR OVC002 08/07 A2988 RMK AO2 T00830072
Loading
Personal Weather Stations






























Interactive Weather Map
Tropical Storm Tracking
New forecast layout! Learn more

10-Day Weather Forecast

Advertisements
Track Severe Weather on mobile